Terminal Aerodrome Forecast
Issued by NWS

Home | Current Version | Previous Version | Text Only | Print | Product List | Glossary On
Versions: 1 2 3 4 5 6 7 8 9 10 11 12 13 14
000
FTUS44 KEPZ 022300
TAFDMN
TAF
KDMN 022333Z 0300/0324 23011KT P6SM VCSH SCT040 OVC100
      TEMPO 0300/0303 5SM -SHRA BKN040
     FM030300 25008KT P6SM VCSH SCT030 OVC070
     FM031000 28008KT P6SM -SHRA BKN020 OVC070
     FM031700 25011G21KT P6SM BKN040 BKN070
     FM032200 25016G26KT P6SM SCT050=

USA.gov is the U.S. government's official web portal to all federal, state and local government web resources and services.